createdAt,value
2023-02-17T00:01:42.981Z,17.39
2023-02-17T00:04:12.364Z,17.39
2023-02-17T00:06:41.267Z,17.39
2023-02-17T00:09:10.094Z,17.39
2023-02-17T00:11:39.451Z,17.40
2023-02-17T00:14:08.446Z,17.39
2023-02-17T00:16:37.179Z,17.39
2023-02-17T00:19:06.527Z,17.38
2023-02-17T00:21:35.392Z,17.39
2023-02-17T00:24:04.686Z,17.39
2023-02-17T00:26:33.938Z,17.39
2023-02-17T00:29:02.730Z,17.39
2023-02-17T00:31:32.711Z,17.38
2023-02-17T00:34:03.066Z,17.38
2023-02-17T00:36:32.284Z,17.39
2023-02-17T00:39:01.660Z,17.38
2023-02-17T00:41:30.717Z,17.39
2023-02-17T00:44:00.170Z,17.39
2023-02-17T00:46:29.556Z,17.38
2023-02-17T00:48:58.930Z,17.38
2023-02-17T00:51:27.105Z,17.38
2023-02-17T00:53:55.491Z,17.37
2023-02-17T00:56:23.919Z,17.37
2023-02-17T00:58:53.202Z,17.37
2023-02-17T01:01:21.980Z,17.38
2023-02-17T01:03:50.851Z,17.37
2023-02-17T01:06:20.084Z,17.37
2023-02-17T01:08:49.434Z,17.37
2023-02-17T01:11:18.353Z,17.37
2023-02-17T01:13:46.847Z,17.36
2023-02-17T01:16:16.518Z,17.37
2023-02-17T01:18:44.919Z,17.36
2023-02-17T01:21:13.914Z,17.37
2023-02-17T01:23:43.325Z,17.37
2023-02-17T01:26:13.192Z,17.35
2023-02-17T01:28:42.113Z,17.36
2023-02-17T01:31:11.563Z,17.36
2023-02-17T01:33:40.538Z,17.37
2023-02-17T01:36:09.974Z,17.36
2023-02-17T01:38:40.953Z,17.37
2023-02-17T01:41:09.877Z,17.36
2023-02-17T01:43:38.251Z,17.33
2023-02-17T01:46:07.599Z,17.35
2023-02-17T01:48:37.590Z,17.36
2023-02-17T01:51:07.509Z,17.35
2023-02-17T01:53:36.308Z,17.35
2023-02-17T01:56:05.454Z,17.35
2023-02-17T01:58:34.712Z,17.34
2023-02-17T02:01:03.516Z,17.35
2023-02-17T02:03:31.830Z,17.35
2023-02-17T02:06:00.736Z,17.34
2023-02-17T02:08:29.697Z,17.33
2023-02-17T02:10:58.538Z,17.34
2023-02-17T02:13:27.697Z,17.34
2023-02-17T02:15:56.464Z,17.33
2023-02-17T02:18:25.590Z,17.33
2023-02-17T02:20:53.960Z,17.33
2023-02-17T02:23:23.580Z,17.33
2023-02-17T02:25:52.601Z,17.34
2023-02-17T02:28:21.109Z,17.33
2023-02-17T02:30:50.579Z,17.34
2023-02-17T02:33:19.473Z,17.34
2023-02-17T02:35:48.753Z,17.33
2023-02-17T02:38:17.791Z,17.33
2023-02-17T02:40:46.730Z,17.33
2023-02-17T02:43:15.768Z,17.33
2023-02-17T02:45:44.077Z,17.34
2023-02-17T02:48:13.016Z,17.33
2023-02-17T02:50:42.011Z,17.33
2023-02-17T02:53:10.682Z,17.33
2023-02-17T02:55:39.541Z,17.33
2023-02-17T02:58:09.071Z,17.33
2023-02-17T03:00:38.518Z,17.26
2023-02-17T03:03:07.757Z,17.33
2023-02-17T03:05:36.662Z,17.33
2023-02-17T03:08:05.076Z,17.34
2023-02-17T03:10:33.962Z,17.34
2023-02-17T03:13:02.553Z,17.34
2023-02-17T03:15:31.291Z,17.34
2023-02-17T03:18:01.504Z,17.33
2023-02-17T03:20:29.982Z,17.32
2023-02-17T03:22:58.833Z,17.33
2023-02-17T03:25:27.808Z,17.33
2023-02-17T03:27:57.680Z,17.31
2023-02-17T03:30:27.821Z,17.32
2023-02-17T03:32:56.630Z,17.32
2023-02-17T03:35:25.836Z,17.32
2023-02-17T03:37:54.655Z,17.32
2023-02-17T03:40:23.847Z,17.30
2023-02-17T03:42:53.165Z,17.31
2023-02-17T03:45:22.518Z,17.31
2023-02-17T03:47:51.829Z,17.31
2023-02-17T03:50:21.074Z,17.30
2023-02-17T03:52:50.342Z,17.29
2023-02-17T03:55:20.524Z,17.28
2023-02-17T03:57:50.808Z,17.29
2023-02-17T04:00:20.077Z,17.29
2023-02-17T04:02:52.174Z,17.27
2023-02-17T04:05:21.490Z,17.28
2023-02-17T04:07:50.846Z,17.28
2023-02-17T04:10:19.466Z,17.27
2023-02-17T04:12:48.068Z,17.29
2023-02-17T04:15:17.317Z,17.28
2023-02-17T04:17:46.578Z,17.28
2023-02-17T04:20:15.525Z,17.26
2023-02-17T04:22:43.847Z,17.28
2023-02-17T04:25:12.086Z,17.26
2023-02-17T04:27:44.901Z,17.26
2023-02-17T04:30:14.166Z,17.26
2023-02-17T04:32:43.598Z,17.26
2023-02-17T04:35:12.877Z,17.26
2023-02-17T04:37:42.275Z,17.26
2023-02-17T04:40:11.156Z,17.26
2023-02-17T04:42:40.403Z,17.26
2023-02-17T04:45:09.740Z,17.26
2023-02-17T04:47:39.018Z,17.25
2023-02-17T04:50:08.262Z,17.25
2023-02-17T04:52:37.533Z,17.25
2023-02-17T04:55:06.801Z,17.24
2023-02-17T04:57:35.628Z,17.24
2023-02-17T05:00:04.877Z,17.23
2023-02-17T05:02:34.154Z,17.22
2023-02-17T05:05:03.471Z,17.23
2023-02-17T05:07:32.495Z,17.25
2023-02-17T05:10:01.135Z,17.24
2023-02-17T05:12:30.537Z,17.23
2023-02-17T05:14:59.858Z,17.22
2023-02-17T05:17:28.685Z,17.24
2023-02-17T05:19:57.521Z,17.23
2023-02-17T05:22:26.370Z,17.23
2023-02-17T05:24:55.397Z,17.24
2023-02-17T05:27:24.086Z,17.23
2023-02-17T05:29:52.616Z,17.22
2023-02-17T05:32:20.956Z,17.23
2023-02-17T05:34:50.288Z,17.23
2023-02-17T05:37:19.155Z,17.22
2023-02-17T05:39:48.424Z,17.22
2023-02-17T05:42:17.567Z,17.22
2023-02-17T05:44:46.837Z,17.22
2023-02-17T05:47:16.268Z,17.22
2023-02-17T05:49:45.486Z,17.23
2023-02-17T05:52:14.450Z,17.22
2023-02-17T05:54:43.070Z,17.21
2023-02-17T05:57:12.422Z,17.20
2023-02-17T05:59:41.806Z,17.19
2023-02-17T06:02:11.049Z,17.19
2023-02-17T06:04:40.453Z,17.19
2023-02-17T06:07:09.882Z,17.18
2023-02-17T06:09:39.266Z,17.19
2023-02-17T06:12:08.538Z,17.18
2023-02-17T06:14:37.837Z,17.19
2023-02-17T06:17:07.177Z,17.19
2023-02-17T06:19:36.084Z,17.19
2023-02-17T06:22:04.801Z,17.18
2023-02-17T06:24:34.125Z,17.18
2023-02-17T06:27:03.505Z,17.18
2023-02-17T06:29:36.571Z,17.18
2023-02-17T06:32:05.246Z,17.17
2023-02-17T06:34:33.455Z,17.18
2023-02-17T06:37:02.720Z,17.17
2023-02-17T06:39:31.940Z,17.18
2023-02-17T06:42:01.388Z,17.16
2023-02-17T06:44:30.773Z,17.16
2023-02-17T06:47:00.242Z,17.18
2023-02-17T06:49:29.561Z,17.18
2023-02-17T06:51:58.725Z,17.17
2023-02-17T06:54:27.538Z,17.16
2023-02-17T06:56:56.295Z,17.17
2023-02-17T06:59:25.542Z,17.17
2023-02-17T07:01:54.401Z,17.16
2023-02-17T07:04:22.798Z,17.16
2023-02-17T07:06:51.972Z,17.16
2023-02-17T07:09:20.829Z,17.16
2023-02-17T07:11:53.680Z,17.15
2023-02-17T07:14:24.951Z,17.14
2023-02-17T07:16:54.616Z,17.15
2023-02-17T07:19:24.048Z,17.16
2023-02-17T07:21:53.428Z,17.14
2023-02-17T07:24:22.450Z,17.15
2023-02-17T07:26:50.796Z,17.15
2023-02-17T07:29:19.337Z,17.15
2023-02-17T07:31:48.669Z,17.15
2023-02-17T07:34:17.867Z,17.14
2023-02-17T07:36:47.243Z,17.14
2023-02-17T07:39:16.540Z,17.14
2023-02-17T07:41:45.354Z,17.14
2023-02-17T07:44:18.770Z,17.15
2023-02-17T07:46:47.289Z,17.14
2023-02-17T07:49:17.990Z,17.15
2023-02-17T07:51:47.537Z,17.15
2023-02-17T07:54:20.060Z,17.15
2023-02-17T07:56:49.400Z,17.16
2023-02-17T07:59:22.537Z,17.18
2023-02-17T08:01:51.765Z,17.18
2023-02-17T08:04:20.771Z,17.18
2023-02-17T08:06:49.351Z,17.17
2023-02-17T08:09:18.194Z,17.17
2023-02-17T08:11:48.987Z,17.19
2023-02-17T08:14:19.172Z,17.19
2023-02-17T08:16:48.268Z,17.20
2023-02-17T08:19:16.903Z,17.18
2023-02-17T08:21:46.292Z,17.17
2023-02-17T08:24:15.406Z,17.18
2023-02-17T08:26:43.608Z,17.19
2023-02-17T08:29:12.968Z,17.19
2023-02-17T08:31:42.313Z,17.20
2023-02-17T08:34:11.675Z,17.20
2023-02-17T08:36:40.611Z,17.21
2023-02-17T08:39:08.914Z,17.22
2023-02-17T08:41:37.558Z,17.21
2023-02-17T08:44:06.860Z,17.21
2023-02-17T08:46:36.186Z,17.22
2023-02-17T08:49:05.454Z,17.23
2023-02-17T08:51:34.717Z,17.23
2023-02-17T08:54:03.983Z,17.25
2023-02-17T08:56:32.915Z,17.25
2023-02-17T08:59:01.437Z,17.25
2023-02-17T09:01:30.340Z,17.25
2023-02-17T09:03:59.647Z,17.26
2023-02-17T09:06:28.873Z,17.26
2023-02-17T09:08:57.676Z,17.26
2023-02-17T09:11:26.841Z,17.26
2023-02-17T09:13:56.037Z,17.26
2023-02-17T09:16:25.404Z,17.27
2023-02-17T09:18:54.816Z,17.28
2023-02-17T09:21:24.128Z,17.28
2023-02-17T09:23:53.319Z,17.30
2023-02-17T09:26:22.497Z,17.30
2023-02-17T09:28:51.711Z,17.32
2023-02-17T09:31:26.292Z,17.33
2023-02-17T09:33:55.156Z,17.33
2023-02-17T09:36:24.652Z,17.34
2023-02-17T09:38:53.945Z,17.35
2023-02-17T09:41:23.285Z,17.36
2023-02-17T09:43:52.685Z,17.37
2023-02-17T09:46:22.020Z,17.38
2023-02-17T09:48:51.308Z,17.38
2023-02-17T09:51:20.595Z,17.39
2023-02-17T09:53:53.243Z,17.40
2023-02-17T09:56:22.545Z,17.40
2023-02-17T09:58:51.744Z,17.39
2023-02-17T10:01:20.526Z,17.39
2023-02-17T10:03:49.127Z,17.38
2023-02-17T10:06:17.836Z,17.39
2023-02-17T10:08:47.148Z,17.42
2023-02-17T10:11:16.410Z,17.43
2023-02-17T10:13:45.847Z,17.45
2023-02-17T10:16:14.832Z,17.47
2023-02-17T10:18:44.177Z,17.48
2023-02-17T10:21:13.564Z,17.51
2023-02-17T10:23:42.919Z,17.45
2023-02-17T10:26:11.529Z,17.51
2023-02-17T10:28:40.345Z,17.53
2023-02-17T10:31:09.513Z,17.53
2023-02-17T10:33:38.128Z,17.54
2023-02-17T10:36:07.248Z,17.49
2023-02-17T10:38:36.143Z,17.54
2023-02-17T10:41:05.652Z,17.49
2023-02-17T10:43:34.939Z,17.55
2023-02-17T10:46:04.058Z,17.55
2023-02-17T10:48:33.889Z,17.57
2023-02-17T10:51:02.700Z,17.56
2023-02-17T10:53:31.267Z,17.56
2023-02-17T10:55:59.923Z,17.58
2023-02-17T10:58:29.228Z,17.58
2023-02-17T11:00:59.544Z,17.57
2023-02-17T11:03:30.757Z,17.59
2023-02-17T11:06:00.181Z,17.59
2023-02-17T11:08:29.455Z,17.61
2023-02-17T11:10:57.870Z,17.61
2023-02-17T11:13:26.921Z,17.61
2023-02-17T11:15:55.666Z,17.62
2023-02-17T11:18:25.079Z,17.63
2023-02-17T11:20:53.998Z,17.65
2023-02-17T11:23:22.998Z,17.67
2023-02-17T11:25:52.231Z,17.68
2023-02-17T11:28:23.839Z,17.69
2023-02-17T11:30:53.355Z,17.70
2023-02-17T11:33:22.764Z,17.66
2023-02-17T11:35:52.010Z,17.69
2023-02-17T11:38:20.916Z,17.67
2023-02-17T11:40:49.252Z,17.65
2023-02-17T11:43:18.185Z,17.65
2023-02-17T11:45:47.474Z,17.63
2023-02-17T11:48:16.709Z,17.63
2023-02-17T11:50:46.042Z,17.63
2023-02-17T11:53:18.888Z,17.63
2023-02-17T11:55:47.666Z,17.63
2023-02-17T11:58:16.583Z,17.61
2023-02-17T12:00:45.965Z,17.63
2023-02-17T12:03:14.923Z,17.64
2023-02-17T12:05:44.414Z,17.64
2023-02-17T12:08:13.291Z,17.66
2023-02-17T12:10:42.656Z,17.65
2023-02-17T12:13:11.947Z,17.65
2023-02-17T12:15:41.204Z,17.65
2023-02-17T12:18:09.931Z,17.65
2023-02-17T12:20:38.733Z,17.63
2023-02-17T12:23:07.966Z,17.63
2023-02-17T12:25:37.492Z,17.63
2023-02-17T12:28:06.422Z,17.62
2023-02-17T12:30:35.280Z,17.59
2023-02-17T12:33:04.413Z,17.58
2023-02-17T12:35:33.068Z,17.55
2023-02-17T12:38:02.323Z,17.57
2023-02-17T12:40:31.739Z,17.55
2023-02-17T12:43:01.039Z,17.53
2023-02-17T12:45:30.406Z,17.55
2023-02-17T12:48:00.686Z,17.56
2023-02-17T12:50:30.754Z,17.55
2023-02-17T12:52:59.537Z,17.56
2023-02-17T12:55:28.781Z,17.55
2023-02-17T12:57:58.146Z,17.55
2023-02-17T13:00:27.378Z,17.56
2023-02-17T13:02:56.621Z,17.55
2023-02-17T13:05:25.827Z,17.55
2023-02-17T13:07:54.504Z,17.55
2023-02-17T13:10:23.495Z,17.55
2023-02-17T13:12:52.378Z,17.55
2023-02-17T13:15:22.543Z,17.55
2023-02-17T13:17:52.435Z,17.55
2023-02-17T13:20:20.856Z,17.55
2023-02-17T13:22:50.924Z,17.57
2023-02-17T13:25:21.292Z,17.59
2023-02-17T13:27:50.202Z,17.59
2023-02-17T13:30:19.672Z,17.61
2023-02-17T13:32:48.770Z,17.61
2023-02-17T13:35:17.559Z,17.61
2023-02-17T13:37:46.387Z,17.62
2023-02-17T13:40:15.743Z,17.62
2023-02-17T13:42:44.559Z,17.61
2023-02-17T13:45:13.951Z,17.61
2023-02-17T13:47:42.864Z,17.61
2023-02-17T13:50:11.635Z,17.59
2023-02-17T13:52:41.204Z,17.59
2023-02-17T13:55:10.102Z,17.59
2023-02-17T13:57:39.047Z,17.59
2023-02-17T14:00:08.364Z,17.58
2023-02-17T14:02:39.128Z,17.58
2023-02-17T14:05:08.228Z,17.58
2023-02-17T14:07:36.806Z,17.58
2023-02-17T14:10:05.992Z,17.63
2023-02-17T14:12:34.995Z,17.65
2023-02-17T14:15:03.379Z,17.65
2023-02-17T14:17:32.710Z,17.65
2023-02-17T14:20:01.826Z,17.66
2023-02-17T14:22:30.504Z,17.66
2023-02-17T14:24:59.964Z,17.65
2023-02-17T14:27:28.843Z,17.65
2023-02-17T14:29:57.858Z,17.63
2023-02-17T14:32:26.093Z,17.66
2023-02-17T14:34:55.442Z,17.67
2023-02-17T14:37:24.587Z,17.69
2023-02-17T14:39:53.266Z,17.74
2023-02-17T14:42:22.495Z,17.75
2023-02-17T14:44:51.736Z,17.73
2023-02-17T14:47:21.092Z,17.72
2023-02-17T14:49:49.793Z,17.74
2023-02-17T14:52:18.985Z,17.74
2023-02-17T14:54:48.298Z,17.74
2023-02-17T14:57:17.345Z,17.73
2023-02-17T14:59:46.078Z,18.01
2023-02-17T15:02:15.371Z,18.00
2023-02-17T15:04:44.721Z,17.95
2023-02-17T15:07:14.219Z,17.89
2023-02-17T15:09:43.600Z,17.85
2023-02-17T15:12:12.873Z,17.84
2023-02-17T15:14:42.136Z,17.85
2023-02-17T15:17:11.136Z,17.84
2023-02-17T15:19:39.748Z,17.86
2023-02-17T15:22:12.502Z,17.89
2023-02-17T15:24:41.123Z,17.91
2023-02-17T15:27:10.072Z,17.87
2023-02-17T15:29:38.646Z,17.85
2023-02-17T15:32:08.088Z,17.83
2023-02-17T15:34:37.665Z,17.82
2023-02-17T15:37:10.666Z,17.81
2023-02-17T15:39:40.030Z,17.80
2023-02-17T15:42:13.025Z,17.80
2023-02-17T15:44:42.518Z,17.80
2023-02-17T15:47:11.466Z,17.79
2023-02-17T15:49:40.883Z,17.75
2023-02-17T15:52:10.273Z,17.74
2023-02-17T15:54:39.804Z,17.74
2023-02-17T15:57:09.127Z,17.74
2023-02-17T15:59:38.284Z,17.73
2023-02-17T16:02:07.126Z,17.73
2023-02-17T16:04:36.581Z,17.73
2023-02-17T16:07:05.922Z,17.71
2023-02-17T16:09:35.110Z,17.69
2023-02-17T16:12:04.432Z,17.68
2023-02-17T16:14:33.307Z,17.68
2023-02-17T16:17:02.775Z,17.67
2023-02-17T16:19:31.820Z,17.67
2023-02-17T16:22:00.363Z,17.65
2023-02-17T16:24:29.611Z,17.65
2023-02-17T16:26:58.890Z,17.63
2023-02-17T16:29:28.142Z,17.63
2023-02-17T16:31:56.926Z,17.62
2023-02-17T16:34:26.409Z,17.60
2023-02-17T16:36:55.881Z,17.59
2023-02-17T16:39:25.297Z,17.58
2023-02-17T16:41:54.169Z,17.57
2023-02-17T16:44:23.437Z,17.55
2023-02-17T16:46:52.268Z,17.53
2023-02-17T16:49:22.895Z,17.53
2023-02-17T16:51:53.549Z,17.51
2023-02-17T16:54:22.150Z,17.51
2023-02-17T16:56:51.479Z,17.49
2023-02-17T16:59:20.925Z,17.46
2023-02-17T17:01:50.228Z,17.46
2023-02-17T17:04:19.022Z,17.45
2023-02-17T17:06:48.031Z,17.45
2023-02-17T17:09:20.703Z,17.43
2023-02-17T17:11:49.714Z,17.43
2023-02-17T17:14:20.578Z,17.42
2023-02-17T17:16:50.814Z,17.41
2023-02-17T17:19:19.825Z,17.40
2023-02-17T17:21:51.363Z,17.39
2023-02-17T17:24:19.504Z,17.38
2023-02-17T17:26:48.886Z,17.38
2023-02-17T17:29:18.149Z,17.38
2023-02-17T17:31:47.010Z,17.37
2023-02-17T17:34:16.279Z,17.38
2023-02-17T17:36:45.179Z,17.36
2023-02-17T17:39:13.632Z,17.36
2023-02-17T17:41:42.345Z,17.35
2023-02-17T17:44:11.554Z,17.35
2023-02-17T17:46:40.852Z,17.34
2023-02-17T17:49:10.066Z,17.33
2023-02-17T17:51:39.308Z,17.34
2023-02-17T17:54:07.673Z,17.33
2023-02-17T17:56:36.869Z,17.33
2023-02-17T17:59:05.676Z,17.34
2023-02-17T18:01:34.645Z,17.33
2023-02-17T18:04:03.078Z,17.33
2023-02-17T18:06:31.232Z,17.33
2023-02-17T18:09:00.470Z,17.33
2023-02-17T18:11:29.745Z,17.32
2023-02-17T18:13:59.019Z,17.32
2023-02-17T18:16:27.481Z,17.30
2023-02-17T18:18:56.832Z,17.34
2023-02-17T18:21:26.076Z,17.33
2023-02-17T18:23:55.092Z,17.33
2023-02-17T18:26:23.777Z,17.34
2023-02-17T18:28:53.005Z,17.33
2023-02-17T18:31:22.177Z,17.33
2023-02-17T18:33:51.021Z,17.34
2023-02-17T18:36:20.522Z,17.33
2023-02-17T18:38:49.776Z,17.34
2023-02-17T18:41:18.569Z,17.33
2023-02-17T18:43:47.754Z,17.33
2023-02-17T18:46:17.040Z,17.32
2023-02-17T18:48:51.130Z,17.32
2023-02-17T18:51:21.393Z,17.32
2023-02-17T18:53:50.193Z,17.28
2023-02-17T18:56:19.510Z,17.31
2023-02-17T18:58:48.525Z,17.32
2023-02-17T19:01:16.849Z,17.31
2023-02-17T19:03:45.579Z,17.28
2023-02-17T19:06:14.403Z,17.30
2023-02-17T19:08:43.567Z,17.31
2023-02-17T19:11:12.913Z,17.31
2023-02-17T19:13:42.307Z,17.31
2023-02-17T19:16:12.027Z,17.30
2023-02-17T19:18:41.456Z,17.31
2023-02-17T19:21:14.248Z,17.31
2023-02-17T19:23:43.460Z,17.30
2023-02-17T19:26:12.465Z,17.29
2023-02-17T19:28:45.086Z,17.29
2023-02-17T19:31:14.126Z,17.29
2023-02-17T19:33:42.980Z,17.29
2023-02-17T19:36:11.804Z,17.28
2023-02-17T19:38:40.737Z,17.28
2023-02-17T19:41:09.065Z,17.21
2023-02-17T19:43:37.669Z,17.28
2023-02-17T19:46:07.308Z,17.28
2023-02-17T19:48:36.288Z,17.27
2023-02-17T19:51:05.595Z,17.28
2023-02-17T19:53:34.620Z,17.27
2023-02-17T19:56:03.293Z,17.27
2023-02-17T19:58:32.110Z,17.26
2023-02-17T20:01:00.917Z,17.26
2023-02-17T20:03:29.950Z,17.27
2023-02-17T20:05:58.597Z,17.26
2023-02-17T20:08:27.879Z,17.27
2023-02-17T20:10:57.100Z,17.27
2023-02-17T20:13:28.676Z,17.26
2023-02-17T20:15:59.695Z,17.26
2023-02-17T20:18:29.960Z,17.26
2023-02-17T20:20:59.649Z,17.26
2023-02-17T20:23:28.732Z,17.27
2023-02-17T20:25:58.492Z,17.26
2023-02-17T20:28:26.874Z,17.26
2023-02-17T20:30:56.220Z,17.25
2023-02-17T20:33:25.549Z,17.25
2023-02-17T20:35:55.068Z,17.25
2023-02-17T20:38:24.486Z,17.25
2023-02-17T20:40:56.958Z,17.24
2023-02-17T20:43:25.229Z,17.24
2023-02-17T20:45:53.107Z,17.24
2023-02-17T20:48:21.866Z,17.24
2023-02-17T20:50:51.178Z,17.24
2023-02-17T20:53:20.150Z,17.22
2023-02-17T20:55:48.525Z,17.23
2023-02-17T20:58:17.367Z,17.23
2023-02-17T21:00:49.771Z,17.22
2023-02-17T21:03:19.128Z,17.19
2023-02-17T21:05:48.432Z,17.23
2023-02-17T21:08:17.778Z,17.22
2023-02-17T21:10:46.577Z,17.22
2023-02-17T21:13:14.981Z,17.20
2023-02-17T21:15:43.601Z,17.18
2023-02-17T21:18:12.394Z,17.21
2023-02-17T21:20:41.824Z,17.21
2023-02-17T21:23:10.422Z,17.20
2023-02-17T21:25:39.019Z,17.19
2023-02-17T21:28:08.174Z,17.19
2023-02-17T21:30:37.499Z,17.20
2023-02-17T21:33:05.769Z,17.20
2023-02-17T21:35:34.121Z,17.19
2023-02-17T21:38:03.599Z,17.15
2023-02-17T21:40:32.981Z,17.19
2023-02-17T21:43:02.253Z,17.17
2023-02-17T21:45:31.477Z,17.19
2023-02-17T21:48:00.763Z,17.19
2023-02-17T21:50:29.552Z,17.18
2023-02-17T21:52:57.710Z,17.17
2023-02-17T21:55:26.630Z,17.17
2023-02-17T21:57:55.251Z,17.16
2023-02-17T22:00:25.523Z,17.17
2023-02-17T22:02:55.483Z,17.16
2023-02-17T22:05:24.910Z,17.15
2023-02-17T22:07:54.209Z,17.16
2023-02-17T22:10:23.034Z,17.16
2023-02-17T22:12:52.954Z,17.15
2023-02-17T22:15:22.348Z,17.16
2023-02-17T22:17:51.500Z,17.15
2023-02-17T22:20:20.452Z,17.15
2023-02-17T22:22:49.086Z,17.14
2023-02-17T22:25:18.468Z,17.14
2023-02-17T22:27:47.765Z,17.15
2023-02-17T22:30:17.125Z,17.13
2023-02-17T22:32:46.140Z,17.14
2023-02-17T22:35:19.165Z,17.14
2023-02-17T22:37:48.489Z,17.14
2023-02-17T22:40:17.393Z,17.14
2023-02-17T22:42:46.163Z,17.14
2023-02-17T22:45:15.365Z,17.11
2023-02-17T22:47:45.581Z,17.11
2023-02-17T22:50:15.276Z,17.11
2023-02-17T22:52:44.589Z,17.10
2023-02-17T22:55:13.461Z,17.11
2023-02-17T22:57:45.738Z,17.11
2023-02-17T23:00:15.072Z,17.10
2023-02-17T23:02:44.391Z,17.10
2023-02-17T23:05:13.675Z,17.10
2023-02-17T23:07:42.475Z,17.09
2023-02-17T23:10:11.216Z,17.10
2023-02-17T23:12:40.628Z,17.09
2023-02-17T23:15:09.897Z,17.10
2023-02-17T23:17:39.191Z,17.09
2023-02-17T23:20:07.974Z,17.05
2023-02-17T23:22:37.199Z,17.09
2023-02-17T23:25:06.446Z,17.09
2023-02-17T23:27:35.714Z,17.09
2023-02-17T23:30:04.443Z,17.09
2023-02-17T23:32:33.744Z,17.09
2023-02-17T23:35:02.575Z,17.09
2023-02-17T23:37:31.774Z,17.09
2023-02-17T23:40:00.987Z,17.09
2023-02-17T23:42:30.311Z,17.08
2023-02-17T23:44:59.570Z,17.09
2023-02-17T23:47:28.838Z,17.08
2023-02-17T23:49:57.657Z,17.08
2023-02-17T23:52:26.922Z,17.08
2023-02-17T23:54:56.134Z,17.05
2023-02-17T23:57:25.395Z,17.08
2023-02-17T23:59:54.741Z,17.08
